This is the latest recevied weather packets stored in our database for station/object N9BID. If no packets are shown the sender has not sent any weather packets the latest 10 day(s).
| Time | Temp. | Humidity | Pressure | Rain* | Wind** | Luminosity | Snow |
|---|---|---|---|---|---|---|---|
| 1777868268 | 7.78° C | 66% | 995.9 hPa | 0 mm | - | 0 W/m² | - |
| 1777867964 | 8.33° C | 64% | 995.7 hPa | 0 mm | - | 0 W/m² | - |
| 1777867660 | 8.89° C | 63% | 995.8 hPa | 0 mm | - | 0 W/m² | - |
| 1777867358 | 9.44° C | 61% | 995.9 hPa | 0 mm | - | 0 W/m² | - |
| 1777867053 | 10° C | 61% | 995.8 hPa | 0 mm | - | 0 W/m² | - |
| 1777866751 | 10.56° C | 59% | 995.9 hPa | 0 mm | - | 0 W/m² | - |
| 1777866448 | 11.11° C | 56% | 996 hPa | 0 mm | - | 0 W/m² | - |
| 1777866145 | 11.11° C | 55% | 996 hPa | 0 mm | - | 0 W/m² | - |
| 1777865843 | 11.11° C | 56% | 996.1 hPa | 0 mm | - | 0 W/m² | - |
| 1777865540 | 11.11° C | 58% | 996.1 hPa | 0 mm | - | 0 W/m² | - |
| 1777865237 | 11.11° C | 56% | 996.1 hPa | 0 mm | - | 0 W/m² | - |
| 1777864934 | 11.67° C | 56% | 996.4 hPa | 0 mm | - | 0 W/m² | - |
| 1777864631 | 11.67° C | 57% | 996.5 hPa | 0 mm | - | 0 W/m² | - |
| 1777864328 | 11.67° C | 56% | 996.5 hPa | 0 mm | - | 0 W/m² | - |
| 1777864024 | 11.67° C | 56% | 996.5 hPa | 0 mm | - | 0 W/m² | - |
| 1777863721 | 12.22° C | 56% | 996.6 hPa | 0 mm | - | 0 W/m² | - |
| 1777863418 | 12.78° C | 53% | 996.5 hPa | 0 mm | - | 0 W/m² | - |
| 1777863114 | 12.78° C | 51% | 996.4 hPa | 0 mm | - | 0 W/m² | - |
| 1777862812 | 12.22° C | 52% | 996.5 hPa | 0 mm | - | 0 W/m² | - |
| 1777862508 | 11.67° C | 53% | 996.5 hPa | 0 mm | - | 0 W/m² | - |
| 1777862205 | 11.67° C | 56% | 996.4 hPa | 0 mm | - | 0 W/m² | - |
| 1777861901 | 11.11° C | 57% | 996.2 hPa | 0 mm | - | 0 W/m² | - |
| 1777861597 | 11.11° C | 57% | 996.3 hPa | 0 mm | - | 0 W/m² | - |
| 1777861293 | 11.67° C | 53% | 996.4 hPa | 0 mm | - | 0 W/m² | - |
| 1777860992 | 11.67° C | 56% | 996.5 hPa | 0 mm | - | 0 W/m² | - |
* Rain latest hour (hover to see other rain measurements)
** Current wind speed in m/s (hover to see current wind gust speed)